Time;durP1;ratioP1;P1;durP2;ratioP2;P2;SDS_P1;SDS_P2;PMS_P1;PMS_P2;Temp;Humidity;BMP_temperature;BMP_pressure;BME280_temperature;BME280_humidity;BME280_pressure;Samples;Min_cycle;Max_cycle;Signal;HPM_P1;HPM_P2
2021/10/28 00:14:04;;;;;;;52.25;15.73;;;7.10;98.80;;;;;;5054339;28;20228;-87
2021/10/28 00:16:33;;;;;;;82.07;17.07;;;7.10;98.90;;;;;;5045871;28;20234;-86
2021/10/28 00:19:01;;;;;;;90.07;16.83;;;7.20;98.80;;;;;;5048798;28;20218;-89
2021/10/28 00:21:30;;;;;;;16.43;14.20;;;7.00;98.80;;;;;;5044753;28;20610;-87
2021/10/28 00:24:02;;;;;;;64.80;16.27;;;7.00;99.20;;;;;;5046876;28;20194;-87
2021/10/28 00:26:30;;;;;;;35.90;15.73;;;7.00;99.10;;;;;;5051066;28;20289;-89
2021/10/28 00:29:00;;;;;;;25.73;14.73;;;7.00;99.10;;;;;;5059175;28;20353;-87
2021/10/28 00:31:28;;;;;;;19.58;15.25;;;7.00;99.10;;;;;;5049503;28;20225;-88
2021/10/28 00:33:56;;;;;;;17.57;14.07;;;7.00;99.20;;;;;;5057303;28;20198;-87
2021/10/28 00:36:23;;;;;;;24.40;14.90;;;7.20;98.70;;;;;;5053650;28;20198;-87
2021/10/28 00:38:50;;;;;;;15.73;14.03;;;7.30;98.50;;;;;;5057087;28;20641;-87
2021/10/28 00:41:19;;;;;;;50.60;15.20;;;7.30;98.20;;;;;;5046184;28;20206;-87
2021/10/28 00:43:49;;;;;;;24.87;14.57;;;7.30;98.20;;;;;;5041201;28;20237;-87
2021/10/28 00:46:17;;;;;;;49.23;15.90;;;7.20;98.30;;;;;;5056223;28;20198;-87
2021/10/28 00:48:45;;;;;;;24.80;13.63;;;7.00;98.10;;;;;;5056525;28;20245;-87
2021/10/28 00:51:12;;;;;;;48.47;13.65;;;6.90;98.30;;;;;;5060021;28;20212;-87
2021/10/28 00:53:39;;;;;;;28.07;14.57;;;6.80;98.70;;;;;;5048355;28;20709;-87
2021/10/28 00:56:07;;;;;;;29.00;13.03;;;6.70;98.80;;;;;;5055725;28;20197;-87
2021/10/28 00:58:36;;;;;;;50.87;14.90;;;6.60;98.80;;;;;;5045486;28;20229;-88
2021/10/28 01:01:05;;;;;;;67.97;14.47;;;6.40;99.20;;;;;;5043723;28;20202;-87
2021/10/28 01:03:34;;;;;;;155.37;16.77;;;6.40;99.50;;;;;;5048662;28;20229;-87
2021/10/28 01:06:02;;;;;;;53.27;13.90;;;6.40;99.10;;;;;;5048447;28;20208;-89
2021/10/28 01:08:31;;;;;;;19.83;12.60;;;6.30;99.20;;;;;;5056534;28;20241;-88
2021/10/28 01:10:58;;;;;;;17.07;13.00;;;6.50;99.40;;;;;;5057694;28;20590;-87
2021/10/28 01:13:25;;;;;;;17.03;12.77;;;6.70;99.20;;;;;;5050523;28;20233;-87
2021/10/28 01:15:56;;;;;;;14.93;13.33;;;6.80;98.80;;;;;;5050606;28;20800;-88
2021/10/28 01:18:24;;;;;;;20.50;12.30;;;6.90;98.60;;;;;;5055000;28;20276;-88
2021/10/28 01:20:54;;;;;;;17.20;12.90;;;7.00;98.20;;;;;;5052067;28;20216;-87
2021/10/28 01:23:23;;;;;;;13.97;11.43;;;7.00;98.10;;;;;;5058519;28;20234;-87
2021/10/28 01:25:52;;;;;;;23.73;12.17;;;7.00;98.00;;;;;;5055795;28;20677;-87
2021/10/28 01:28:20;;;;;;;18.07;12.43;;;7.10;97.50;;;;;;5060343;28;20708;-87
2021/10/28 01:30:48;;;;;;;18.53;12.60;;;7.00;97.50;;;;;;5054632;28;20205;-87
2021/10/28 01:33:16;;;;;;;15.93;12.87;;;7.10;97.40;;;;;;5065512;28;20240;-86
2021/10/28 01:35:43;;;;;;;19.83;12.37;;;7.10;97.40;;;;;;5054964;28;20202;-87
2021/10/28 01:38:14;;;;;;;14.93;12.50;;;7.10;97.50;;;;;;5051037;28;20217;-88
2021/10/28 01:40:42;;;;;;;14.97;12.67;;;7.10;97.40;;;;;;5053673;28;20292;-88
2021/10/28 01:43:10;;;;;;;16.90;12.83;;;7.10;97.30;;;;;;5051949;28;20309;-88
2021/10/28 01:45:37;;;;;;;19.90;12.67;;;7.10;97.20;;;;;;5055292;28;20208;-87
2021/10/28 01:48:06;;;;;;;21.60;13.03;;;6.90;97.70;;;;;;5049230;28;20226;-87
2021/10/28 01:50:33;;;;;;;29.70;13.60;;;6.90;97.80;;;;;;5054527;28;20214;-87
2021/10/28 01:53:00;;;;;;;69.77;15.07;;;6.90;98.00;;;;;;5057975;28;20228;-90
2021/10/28 01:55:28;;;;;;;79.83;14.33;;;6.70;98.00;;;;;;5050632;28;20284;-87
2021/10/28 01:57:55;;;;;;;135.97;17.43;;;6.50;98.10;;;;;;5052933;28;20892;-87
2021/10/28 02:00:24;;;;;;;77.57;15.40;;;6.30;98.60;;;;;;5053141;28;20206;-88
2021/10/28 02:02:51;;;;;;;32.93;13.20;;;6.20;99.10;;;;;;5051605;28;20328;-87
2021/10/28 02:05:21;;;;;;;26.23;13.70;;;6.30;99.70;;;;;;5047324;28;20206;-87
2021/10/28 02:07:48;;;;;;;18.83;11.97;;;6.40;99.50;;;;;;5053385;28;20286;-87
2021/10/28 02:10:17;;;;;;;24.77;11.73;;;6.60;99.40;;;;;;5048927;28;20261;-87
2021/10/28 02:12:47;;;;;;;23.53;11.57;;;6.70;98.80;;;;;;5043082;28;20237;-87
2021/10/28 02:15:16;;;;;;;35.97;12.50;;;6.80;98.60;;;;;;5052481;28;20615;-87
2021/10/28 02:17:44;;;;;;;33.93;12.57;;;6.80;98.10;;;;;;5053148;28;20738;-88
2021/10/28 02:20:13;;;;;;;30.60;12.23;;;6.80;98.10;;;;;;5052323;28;20209;-88
2021/10/28 02:22:41;;;;;;;17.00;11.57;;;6.80;98.10;;;;;;5048341;28;20229;-88
2021/10/28 02:25:09;;;;;;;42.83;11.20;;;6.70;98.00;;;;;;5045752;28;20217;-87
2021/10/28 02:27:37;;;;;;;30.80;12.00;;;6.80;98.10;;;;;;5049644;28;20217;-89
2021/10/28 02:30:08;;;;;;;22.63;10.93;;;6.60;98.00;;;;;;5047131;28;20255;-88
2021/10/28 02:32:36;;;;;;;20.57;11.00;;;6.70;98.00;;;;;;5048183;28;20230;-88
2021/10/28 02:35:04;;;;;;;19.43;10.90;;;6.70;98.00;;;;;;5052940;28;20213;-87
2021/10/28 02:37:31;;;;;;;22.47;10.10;;;6.60;97.70;;;;;;5059497;28;20251;-88
2021/10/28 02:39:58;;;;;;;98.10;12.20;;;6.60;97.60;;;;;;5061472;28;20201;-87
2021/10/28 02:42:25;;;;;;;143.30;14.67;;;6.40;97.40;;;;;;5040630;28;20227;-87
2021/10/28 02:44:52;;;;;;;66.77;11.87;;;6.40;97.90;;;;;;5047946;28;20660;-88
2021/10/28 02:47:21;;;;;;;68.00;13.50;;;6.30;98.10;;;;;;5046518;28;20232;-87
2021/10/28 02:49:48;;;;;;;18.13;11.47;;;6.30;98.60;;;;;;5053360;28;20684;-87
2021/10/28 02:52:15;;;;;;;36.97;10.80;;;6.40;98.40;;;;;;5052292;28;20230;-88
2021/10/28 02:54:42;;;;;;;39.97;11.63;;;6.40;98.00;;;;;;5053801;28;20214;-88
2021/10/28 02:57:09;;;;;;;22.30;11.70;;;6.40;98.00;;;;;;5056918;28;20236;-87
2021/10/28 02:59:36;;;;;;;11.90;10.70;;;6.40;98.20;;;;;;5059404;28;20204;-87
2021/10/28 03:02:04;;;;;;;15.33;11.53;;;6.50;98.40;;;;;;5048505;28;20231;-88
2021/10/28 03:04:32;;;;;;;35.70;12.03;;;6.60;98.10;;;;;;5054243;28;20199;-87
2021/10/28 03:06:59;;;;;;;28.60;12.40;;;6.60;98.20;;;;;;5049510;28;20725;-90
2021/10/28 03:09:29;;;;;;;46.10;12.80;;;6.60;98.00;;;;;;5058678;28;20216;-87
2021/10/28 03:11:58;;;;;;;18.03;11.83;;;6.50;98.00;;;;;;5048991;28;20613;-87
2021/10/28 03:14:32;;;;;;;18.37;12.03;;;6.50;98.10;;;;;;5053142;28;20198;-87
2021/10/28 03:17:03;;;;;;;15.27;12.00;;;6.50;98.40;;;;;;5049374;28;20588;-89
2021/10/28 03:19:43;;;;;;;15.90;11.57;;;6.50;98.50;;;;;;5045795;28;20233;-89
2021/10/28 03:27:39;;;;;;;16.50;11.30;;;6.70;97.60;;;;;;5050571;28;20312;-89
2021/10/28 03:30:08;;;;;;;26.50;11.53;;;6.80;97.70;;;;;;5048505;28;20194;-90
2021/10/28 03:32:36;;;;;;;13.83;11.27;;;6.70;97.40;;;;;;5053805;28;20242;-91
2021/10/28 03:35:07;;;;;;;17.50;11.83;;;6.80;97.40;;;;;;5055755;28;20226;-87
2021/10/28 03:37:38;;;;;;;47.27;12.30;;;6.80;97.30;;;;;;5052261;28;20222;-90
2021/10/28 03:40:30;;;;;;;23.90;12.87;;;6.80;97.20;;;;;;5052678;28;20194;-90
2021/10/28 04:05:57;;;;;;;16.93;14.27;;;6.60;98.80;;;;;;5052521;28;20233;-89
2021/10/28 04:30:24;;;;;;;17.07;14.50;;;7.20;98.80;;;;;;5057841;28;20200;-87
2021/10/28 04:32:53;;;;;;;20.05;14.20;;;7.20;98.60;;;;;;5047975;28;20265;-90
2021/10/28 04:35:20;;;;;;;16.80;14.10;;;7.10;98.50;;;;;;5053926;28;20204;-90
2021/10/28 04:37:48;;;;;;;16.53;13.20;;;7.10;98.80;;;;;;5055227;28;20225;-89
2021/10/28 04:40:16;;;;;;;16.87;12.80;;;7.90;98.60;;;;;;5050869;28;20722;-90
2021/10/28 04:42:43;;;;;;;13.52;11.77;;;8.60;96.60;;;;;;5053897;28;20234;-90
2021/10/28 04:45:11;;;;;;;11.55;10.35;;;9.20;93.80;;;;;;5052054;28;20662;-90
2021/10/28 04:47:38;;;;;;;13.82;12.15;;;9.60;92.10;;;;;;5060075;28;20229;-91
2021/10/28 04:50:06;;;;;;;12.02;10.75;;;9.60;90.60;;;;;;5049823;28;20297;-90
2021/10/28 04:52:33;;;;;;;11.82;10.63;;;9.50;91.60;;;;;;5061908;28;20676;-91
2021/10/28 04:55:00;;;;;;;14.10;11.18;;;10.10;91.20;;;;;;5049898;28;20641;-90
2021/10/28 04:57:32;;;;;;;12.63;10.75;;;10.50;90.30;;;;;;5053428;28;20225;-91
2021/10/28 05:00:01;;;;;;;14.18;12.35;;;10.10;90.00;;;;;;5057879;28;20201;-88
2021/10/28 05:02:28;;;;;;;11.57;10.38;;;10.10;87.30;;;;;;5044769;28;20337;-89
2021/10/28 05:04:55;;;;;;;12.52;11.23;;;10.00;89.60;;;;;;5057166;28;20293;-88
2021/10/28 05:07:22;;;;;;;14.15;12.55;;;10.10;88.20;;;;;;5051556;28;20698;-89
2021/10/28 05:09:49;;;;;;;13.05;11.63;;;9.80;88.90;;;;;;5048892;28;20205;-88
2021/10/28 05:12:17;;;;;;;13.82;11.60;;;9.80;90.60;;;;;;5045733;28;20230;-89
2021/10/28 05:14:46;;;;;;;14.48;12.32;;;9.60;90.70;;;;;;5046888;28;20210;-87
2021/10/28 05:17:13;;;;;;;15.35;13.07;;;9.70;90.90;;;;;;5050228;28;20697;-88
2021/10/28 05:19:41;;;;;;;14.13;12.15;;;9.80;90.30;;;;;;5046328;28;20206;-87
2021/10/28 05:22:09;;;;;;;15.93;11.32;;;9.60;90.70;;;;;;5043404;28;20228;-89
2021/10/28 05:24:36;;;;;;;12.93;11.60;;;9.80;90.60;;;;;;5055213;28;20262;-86
2021/10/28 05:27:04;;;;;;;15.45;12.13;;;10.00;89.00;;;;;;5056351;28;20226;-87
2021/10/28 05:29:31;;;;;;;33.72;14.25;;;9.90;90.40;;;;;;5045567;28;20266;-87
2021/10/28 05:31:59;;;;;;;29.95;14.85;;;9.90;90.70;;;;;;5060308;28;20225;-87
2021/10/28 05:34:26;;;;;;;15.95;13.23;;;9.90;90.70;;;;;;5048406;28;20698;-91
2021/10/28 05:36:54;;;;;;;15.40;13.07;;;9.60;90.30;;;;;;5040921;28;20220;-90
2021/10/28 05:39:21;;;;;;;14.88;12.15;;;9.30;91.00;;;;;;5040715;28;20638;-86
2021/10/28 05:41:48;;;;;;;15.00;12.00;;;9.30;91.80;;;;;;5040005;28;20710;-86
2021/10/28 05:44:16;;;;;;;15.02;12.70;;;9.40;91.60;;;;;;5045698;28;20780;-87
2021/10/28 05:46:43;;;;;;;14.93;12.77;;;9.30;91.90;;;;;;5056702;28;20194;-85
2021/10/28 05:49:11;;;;;;;14.88;12.98;;;9.10;92.20;;;;;;5046685;28;20301;-87
2021/10/28 05:51:38;;;;;;;16.55;13.45;;;9.00;92.60;;;;;;5055842;28;20220;-89
2021/10/28 05:54:06;;;;;;;17.05;12.93;;;9.20;92.40;;;;;;5058423;28;20237;-87
2021/10/28 05:56:34;;;;;;;14.52;11.48;;;9.20;92.20;;;;;;5042104;28;20583;-85
2021/10/28 05:59:01;;;;;;;16.25;13.48;;;9.10;93.20;;;;;;5053186;28;20197;-87
2021/10/28 06:01:27;;;;;;;18.02;14.57;;;9.80;90.60;;;;;;5044597;28;20190;-85
2021/10/28 06:03:54;;;;;;;23.23;14.98;;;9.50;90.60;;;;;;5029183;28;20667;-85
2021/10/28 06:06:23;;;;;;;21.17;15.38;;;9.20;91.80;;;;;;5046742;28;20236;-85
2021/10/28 06:08:50;;;;;;;17.10;13.70;;;8.70;93.20;;;;;;5036470;28;20219;-86
2021/10/28 06:11:17;;;;;;;13.55;11.57;;;8.80;94.10;;;;;;5045663;28;21158;-88
2021/10/28 06:13:46;;;;;;;17.30;13.55;;;9.30;93.30;;;;;;5043643;28;20353;-85
2021/10/28 06:16:13;;;;;;;16.83;14.45;;;9.40;92.00;;;;;;5049194;28;20626;-87
2021/10/28 06:18:42;;;;;;;17.35;14.57;;;9.20;91.70;;;;;;5040979;28;20237;-86
2021/10/28 06:21:11;;;;;;;16.00;12.85;;;8.80;93.10;;;;;;5040732;28;20205;-86
2021/10/28 06:23:42;;;;;;;15.30;12.55;;;9.10;93.40;;;;;;5043666;28;20252;-86
2021/10/28 06:26:09;;;;;;;14.50;12.63;;;9.20;92.70;;;;;;5039246;28;20227;-87
2021/10/28 06:28:36;;;;;;;17.80;13.38;;;9.20;92.30;;;;;;5038278;28;20226;-87
2021/10/28 06:31:03;;;;;;;14.80;11.88;;;9.20;91.90;;;;;;5050159;28;20209;-86
2021/10/28 06:33:34;;;;;;;14.90;12.63;;;9.40;92.20;;;;;;5057129;28;20260;-87
2021/10/28 06:36:03;;;;;;;15.68;12.13;;;9.20;92.50;;;;;;5047667;28;20202;-88
2021/10/28 06:38:33;;;;;;;14.48;11.93;;;9.20;92.60;;;;;;5050477;28;20237;-86
2021/10/28 06:41:03;;;;;;;14.45;12.65;;;9.60;91.80;;;;;;5041973;28;20849;-87
2021/10/28 06:43:31;;;;;;;14.63;12.10;;;9.30;91.60;;;;;;5054922;28;20336;-90
2021/10/28 06:45:58;;;;;;;14.30;12.50;;;9.10;92.80;;;;;;5051500;28;20198;-87
2021/10/28 06:48:28;;;;;;;14.43;12.80;;;9.10;92.30;;;;;;5058377;28;20223;-89
2021/10/28 06:50:58;;;;;;;12.60;11.25;;;9.10;92.00;;;;;;5049309;28;20206;-86
2021/10/28 06:53:26;;;;;;;13.52;11.82;;;9.40;92.10;;;;;;5028104;28;20651;-88
2021/10/28 06:56:01;;;;;;;13.63;12.18;;;9.50;91.20;;;;;;5026317;28;20658;-87
2021/10/28 07:03:58;;;;;;;12.93;11.23;;;9.30;90.50;;;;;;5041067;28;20360;-91
2021/10/28 07:06:27;;;;;;;12.07;10.52;;;9.60;90.60;;;;;;5045145;28;20209;-87
2021/10/28 07:08:57;;;;;;;13.45;11.27;;;9.50;90.60;;;;;;5030046;28;20226;-90
2021/10/28 07:11:27;;;;;;;12.70;10.98;;;9.50;90.60;;;;;;5032906;28;20202;-89
2021/10/28 07:13:57;;;;;;;14.68;11.63;;;9.30;90.50;;;;;;5054948;28;20633;-87
2021/10/28 07:16:32;;;;;;;12.30;10.48;;;9.30;91.10;;;;;;5052513;28;20194;-87
2021/10/28 07:19:08;;;;;;;10.65;9.25;;;9.20;91.90;;;;;;5045143;28;20214;-89
2021/10/28 07:22:12;;;;;;;11.25;10.13;;;10.00;88.50;;;;;;5049495;28;20200;-89
2021/10/28 07:27:48;;;;;;;10.27;9.27;;;9.80;88.70;;;;;;5020752;28;20231;-89
2021/10/28 07:38:55;;;;;;;9.38;8.38;;;10.20;82.30;;;;;;5052157;28;20711;-88
2021/10/28 08:13:26;;;;;;;13.90;12.38;;;9.10;91.30;;;;;;5052817;28;20206;-86
2021/10/28 08:20:18;;;;;;;12.55;10.68;;;10.10;87.80;;;;;;5051009;28;20660;-89
2021/10/28 08:22:49;;;;;;;14.30;11.05;;;10.40;85.90;;;;;;5067900;28;20233;-87
2021/10/28 08:30:50;;;;;;;17.55;13.23;;;10.20;82.40;;;;;;5069654;28;20561;-88
2021/10/28 08:33:19;;;;;;;14.25;11.98;;;9.70;90.00;;;;;;5047190;28;20228;-89
2021/10/28 08:36:06;;;;;;;15.57;13.30;;;10.00;88.10;;;;;;5062367;28;20703;-90
2021/10/28 08:38:34;;;;;;;15.27;12.68;;;10.00;85.50;;;;;;5060329;28;20249;-87
2021/10/28 08:41:04;;;;;;;14.15;12.40;;;9.80;89.80;;;;;;5053831;28;20553;-87
2021/10/28 08:43:35;;;;;;;15.27;11.65;;;9.60;90.80;;;;;;5039527;28;20249;-86
2021/10/28 08:46:02;;;;;;;14.82;11.65;;;9.70;90.60;;;;;;5061972;28;20213;-88
2021/10/28 08:48:32;;;;;;;12.63;11.13;;;10.40;83.90;;;;;;5041420;28;20218;-87
2021/10/28 08:51:15;;;;;;;11.90;10.60;;;10.40;84.00;;;;;;5060132;28;20223;-88
2021/10/28 08:54:11;;;;;;;14.00;12.25;;;11.10;86.40;;;;;;5056156;28;20221;-88
2021/10/28 08:56:51;;;;;;;14.38;12.82;;;10.50;79.00;;;;;;5057293;28;20198;-87
2021/10/28 08:59:45;;;;;;;14.13;12.18;;;9.70;85.80;;;;;;5052012;28;20206;-88
2021/10/28 09:24:47;;;;;;;16.17;13.10;;;9.80;90.60;;;;;;5057785;28;20197;-90
2021/10/28 09:31:21;;;;;;;16.70;14.02;;;10.60;85.50;;;;;;5050437;28;20177;-84
2021/10/28 09:34:00;;;;;;;15.82;13.50;;;10.70;81.40;;;;;;5061565;28;20237;-85
2021/10/28 09:45:31;;;;;;;12.32;10.95;;;12.60;69.30;;;;;;5064993;28;20737;-88
2021/10/28 09:48:17;;;;;;;13.25;11.90;;;14.00;59.30;;;;;;5047153;28;20222;-84
2021/10/28 09:50:51;;;;;;;13.15;11.77;;;14.80;51.20;;;;;;5042112;28;20209;-89
2021/10/28 09:53:27;;;;;;;13.13;11.40;;;15.60;47.30;;;;;;5050161;28;20217;-86
2021/10/28 09:58:41;;;;;;;12.70;11.45;;;16.80;39.00;;;;;;5047700;28;20233;-82
2021/10/28 10:01:11;;;;;;;13.15;11.85;;;16.80;37.70;;;;;;5046145;28;20193;-81
2021/10/28 10:03:40;;;;;;;12.38;11.18;;;16.60;37.50;;;;;;5046774;28;20222;-82
2021/10/28 10:06:13;;;;;;;11.85;10.73;;;16.60;38.20;;;;;;5047771;28;20599;-83
2021/10/28 10:08:42;;;;;;;12.40;11.20;;;16.00;39.10;;;;;;5046224;28;20221;-84
2021/10/28 10:11:09;;;;;;;10.68;9.57;;;17.10;38.30;;;;;;5043403;28;20202;-82
2021/10/28 10:13:37;;;;;;;10.80;9.70;;;17.70;34.40;;;;;;5040034;28;20311;-89
2021/10/28 10:16:06;;;;;;;11.30;10.30;;;18.90;31.10;;;;;;5020044;28;20207;-83
2021/10/28 10:18:36;;;;;;;12.15;11.02;;;18.90;31.10;;;;;;5047059;28;20313;-82
2021/10/28 10:21:08;;;;;;;11.80;10.60;;;18.20;30.60;;;;;;5047722;28;20276;-82
2021/10/28 10:24:03;;;;;;;12.68;11.57;;;17.70;34.30;;;;;;5039884;28;20309;-82
2021/10/28 10:27:01;;;;;;;12.63;11.43;;;17.90;33.90;;;;;;5045692;28;20289;-83
2021/10/28 10:30:00;;;;;;;13.07;11.60;;;17.90;33.20;;;;;;5036366;28;20692;-82
2021/10/28 11:28:23;;;;;;;12.32;11.05;;;14.20;56.50;;;;;;5045624;28;20217;-87
2021/10/28 11:58:59;;;;;;;13.07;11.77;;;14.20;55.30;;;;;;5059799;28;20250;-88
2021/10/28 12:14:06;;;;;;;13.13;11.30;;;14.00;51.60;;;;;;5056155;28;20225;-88
2021/10/28 12:44:07;;;;;;;12.88;9.65;;;14.10;53.80;;;;;;5054874;28;20256;-86
2021/10/28 12:46:59;;;;;;;11.55;10.35;;;14.10;53.10;;;;;;5052022;28;20199;-86
2021/10/28 13:04:00;;;;;;;12.20;9.27;;;14.10;50.50;;;;;;5057021;28;20239;-88
2021/10/28 13:51:10;;;;;;;8.60;7.15;;;14.20;50.60;;;;;;5056670;28;20226;-90
2021/10/28 13:54:01;;;;;;;9.80;7.32;;;14.30;50.70;;;;;;5059707;28;20276;-87
2021/10/28 13:57:00;;;;;;;9.13;7.07;;;14.30;50.70;;;;;;5049233;28;20256;-87
2021/10/28 13:59:50;;;;;;;11.68;8.55;;;14.20;50.60;;;;;;5054607;28;20214;-85
2021/10/28 14:22:02;;;;;;;10.70;9.25;;;14.00;60.00;;;;;;5045532;28;20194;-86
2021/10/28 14:27:36;;;;;;;10.27;7.85;;;14.00;60.00;;;;;;5059518;28;20305;-86
2021/10/28 15:30:01;;;;;;;15.30;13.30;;;12.80;83.50;;;;;;5044311;28;20280;-88
2021/10/28 15:35:37;;;;;;;19.85;14.38;;;12.60;85.80;;;;;;5060575;28;20705;-89
2021/10/28 15:41:14;;;;;;;16.52;14.35;;;12.30;89.50;;;;;;5057115;28;20621;-87
2021/10/28 16:22:51;;;;;;;19.30;15.02;;;10.70;95.90;;;;;;5061532;28;20233;-85
2021/10/28 16:25:17;;;;;;;22.92;16.80;;;10.60;96.00;;;;;;5066592;28;20202;-85
2021/10/28 16:27:44;;;;;;;17.52;15.63;;;10.60;96.20;;;;;;5054756;28;20503;-86
2021/10/28 16:30:11;;;;;;;22.55;16.42;;;10.50;96.60;;;;;;5059936;28;20265;-86
2021/10/28 16:32:39;;;;;;;17.15;15.35;;;10.50;96.60;;;;;;5069809;28;20559;-86
2021/10/28 16:35:06;;;;;;;20.90;16.80;;;10.40;96.90;;;;;;5065772;28;20222;-85
2021/10/28 16:37:34;;;;;;;20.98;16.60;;;10.30;97.00;;;;;;5061659;28;20222;-85
2021/10/28 16:40:03;;;;;;;19.85;16.27;;;10.20;97.20;;;;;;5053993;28;20205;-85
2021/10/28 16:42:30;;;;;;;19.73;17.40;;;10.20;97.50;;;;;;5051723;28;20602;-85
2021/10/28 16:44:57;;;;;;;19.05;16.88;;;10.10;97.70;;;;;;5054300;28;20229;-85
2021/10/28 16:47:27;;;;;;;24.52;17.40;;;10.00;97.80;;;;;;5063384;28;20238;-86
2021/10/28 16:49:54;;;;;;;20.50;17.38;;;10.00;97.90;;;;;;5057584;28;20297;-86
2021/10/28 16:52:21;;;;;;;20.55;17.35;;;10.00;98.00;;;;;;5063515;28;20244;-86
2021/10/28 16:54:48;;;;;;;21.85;17.75;;;9.90;98.40;;;;;;5057889;28;20218;-86
2021/10/28 16:57:16;;;;;;;19.58;16.92;;;9.80;98.50;;;;;;5054325;28;20304;-86
2021/10/28 16:59:43;;;;;;;21.75;17.52;;;9.80;98.70;;;;;;5049471;28;20198;-89
2021/10/28 17:02:10;;;;;;;19.90;17.13;;;9.70;98.80;;;;;;5048580;28;20226;-87
2021/10/28 17:04:37;;;;;;;22.33;17.45;;;9.60;98.90;;;;;;5048346;28;20198;-87
2021/10/28 17:07:04;;;;;;;23.05;18.00;;;9.60;99.00;;;;;;5055727;28;20283;-86
2021/10/28 17:09:31;;;;;;;21.23;17.38;;;9.50;99.10;;;;;;5035443;28;20204;-86
2021/10/28 17:11:58;;;;;;;21.35;17.08;;;9.50;99.10;;;;;;5049248;28;20309;-86
2021/10/28 17:14:26;;;;;;;22.25;17.70;;;9.50;99.30;;;;;;5048956;28;20198;-86
2021/10/28 17:16:53;;;;;;;20.77;17.20;;;9.40;99.20;;;;;;5052751;28;20681;-87
2021/10/28 17:19:20;;;;;;;19.38;16.48;;;9.40;99.30;;;;;;5056452;28;20499;-87
2021/10/28 17:21:48;;;;;;;19.08;16.98;;;9.30;99.40;;;;;;5053662;28;20198;-86
2021/10/28 17:24:38;;;;;;;21.50;17.23;;;9.30;99.50;;;;;;5049906;28;20225;-87
2021/10/28 17:27:06;;;;;;;21.35;17.25;;;9.30;99.50;;;;;;5046079;28;20226;-89
2021/10/28 17:29:34;;;;;;;19.95;17.85;;;9.20;99.60;;;;;;5056990;28;20261;-87
2021/10/28 17:32:01;;;;;;;22.95;18.58;;;9.10;99.70;;;;;;5052823;28;20230;-87
2021/10/28 17:34:29;;;;;;;20.95;16.98;;;9.10;99.80;;;;;;5058654;28;20216;-86
2021/10/28 17:36:56;;;;;;;20.27;17.88;;;9.10;99.90;;;;;;5056599;28;20574;-86
2021/10/28 17:39:27;;;;;;;21.40;18.45;;;9.00;99.90;;;;;;5061927;28;20257;-86
2021/10/28 17:41:54;;;;;;;22.02;18.55;;;9.00;99.90;;;;;;5049071;28;20206;-86
2021/10/28 17:44:25;;;;;;;21.92;18.30;;;8.90;99.90;;;;;;5057282;28;20197;-88
2021/10/28 17:46:53;;;;;;;22.63;18.25;;;8.90;99.90;;;;;;5047972;28;20691;-86
2021/10/28 17:49:20;;;;;;;20.13;17.92;;;8.90;99.90;;;;;;5054585;28;20265;-86
2021/10/28 17:51:47;;;;;;;21.60;18.30;;;8.80;99.90;;;;;;5057582;28;20300;-86
2021/10/28 17:54:14;;;;;;;20.55;17.98;;;8.80;99.90;;;;;;5063388;28;20201;-87
2021/10/28 17:56:41;;;;;;;20.88;18.25;;;8.80;99.90;;;;;;5056033;28;20252;-86
2021/10/28 17:59:09;;;;;;;22.35;18.48;;;8.70;99.90;;;;;;5050261;28;20285;-88
2021/10/28 18:01:38;;;;;;;21.27;17.83;;;8.60;99.90;;;;;;5048058;28;20560;-86
2021/10/28 18:04:09;;;;;;;20.83;17.73;;;8.70;99.90;;;;;;5059351;28;20255;-86
2021/10/28 18:06:37;;;;;;;20.73;17.90;;;8.60;99.90;;;;;;5049337;28;20556;-87
2021/10/28 18:09:05;;;;;;;25.25;18.23;;;8.50;99.90;;;;;;5055862;28;20669;-86
2021/10/28 18:11:32;;;;;;;22.90;18.17;;;8.60;99.90;;;;;;5057977;28;20201;-88
2021/10/28 18:14:00;;;;;;;18.63;16.48;;;8.50;99.90;;;;;;5053466;28;20224;-86
2021/10/28 18:16:28;;;;;;;23.67;18.52;;;8.60;99.90;;;;;;5051834;28;20249;-89
2021/10/28 18:18:56;;;;;;;25.27;17.70;;;8.60;99.80;;;;;;5043603;28;20253;-87
2021/10/28 18:21:26;;;;;;;21.45;17.77;;;8.70;99.60;;;;;;5049072;28;20206;-87
2021/10/28 18:23:56;;;;;;;23.08;17.48;;;8.70;99.30;;;;;;5045412;28;20285;-88
2021/10/28 18:26:24;;;;;;;21.92;18.27;;;8.60;99.10;;;;;;5049456;28;20658;-86
2021/10/28 18:28:51;;;;;;;26.00;18.92;;;8.50;99.20;;;;;;5054197;28;20230;-87
2021/10/28 18:31:19;;;;;;;20.95;17.73;;;8.30;99.50;;;;;;5052055;28;20248;-87
2021/10/28 18:33:48;;;;;;;21.95;18.42;;;8.30;99.80;;;;;;5053251;28;20226;-86
2021/10/28 18:36:16;;;;;;;25.17;18.67;;;8.30;99.90;;;;;;5057402;28;20228;-88
2021/10/28 18:38:46;;;;;;;24.30;19.85;;;8.20;99.80;;;;;;5056294;28;20222;-86
2021/10/28 18:41:13;;;;;;;22.95;18.83;;;8.20;99.70;;;;;;5051943;28;20198;-88
2021/10/28 18:43:41;;;;;;;23.70;18.80;;;8.10;99.50;;;;;;5062512;28;20232;-88
2021/10/28 18:46:08;;;;;;;24.70;18.52;;;8.10;99.50;;;;;;5058493;28;20206;-86
2021/10/28 18:48:35;;;;;;;25.13;18.52;;;8.00;99.60;;;;;;5053057;28;20226;-87
2021/10/28 18:51:02;;;;;;;21.60;18.27;;;7.90;99.90;;;;;;5058059;28;20216;-87
2021/10/28 18:53:29;;;;;;;24.85;19.10;;;7.90;99.70;;;;;;5062261;28;20227;-86
2021/10/28 18:55:58;;;;;;;27.50;19.50;;;7.90;99.60;;;;;;5066445;28;20249;-85
2021/10/28 18:58:25;;;;;;;23.20;18.50;;;7.80;99.80;;;;;;5064184;28;20304;-90
2021/10/28 19:00:51;;;;;;;22.63;18.45;;;7.80;99.80;;;;;;5047716;28;20217;-89
2021/10/28 19:03:19;;;;;;;24.83;19.80;;;7.70;99.70;;;;;;5048735;28;20658;-87
2021/10/28 19:05:46;;;;;;;24.60;19.50;;;7.70;99.50;;;;;;5051522;28;20276;-88
2021/10/28 19:08:15;;;;;;;24.85;18.77;;;7.60;99.50;;;;;;5042815;28;20245;-87
2021/10/28 19:10:42;;;;;;;25.67;18.73;;;7.40;99.80;;;;;;5049594;28;20194;-86
2021/10/28 19:13:10;;;;;;;23.75;19.10;;;7.40;99.90;;;;;;5055552;28;20253;-86
2021/10/28 19:15:37;;;;;;;25.30;19.20;;;7.30;99.90;;;;;;5053957;28;20249;-86
2021/10/28 19:18:05;;;;;;;21.67;18.43;;;7.40;99.90;;;;;;5051507;28;20657;-86
2021/10/28 19:20:33;;;;;;;25.80;19.05;;;7.50;99.80;;;;;;5052280;28;20205;-86
2021/10/28 19:23:00;;;;;;;24.70;19.50;;;7.60;99.30;;;;;;5057005;28;20218;-85
2021/10/28 19:25:27;;;;;;;23.73;18.43;;;7.50;99.10;;;;;;5054791;28;20334;-85
2021/10/28 19:27:54;;;;;;;23.97;19.10;;;7.30;99.30;;;;;;5051044;28;20224;-86
2021/10/28 19:30:29;;;;;;;24.83;19.30;;;7.20;99.60;;;;;;5051993;28;20252;-85
2021/10/28 19:33:00;;;;;;;22.83;18.83;;;7.10;99.90;;;;;;5052159;28;20224;-86
2021/10/28 19:35:28;;;;;;;25.10;18.73;;;7.00;99.90;;;;;;5054334;28;20284;-85
2021/10/28 19:38:02;;;;;;;22.67;18.37;;;7.10;99.90;;;;;;5046845;28;20225;-89
2021/10/28 19:40:57;;;;;;;22.83;18.13;;;7.00;99.90;;;;;;5053054;28;20232;-85
2021/10/28 19:46:10;;;;;;;25.73;19.50;;;7.10;99.50;;;;;;5053262;28;20670;-86
2021/10/28 19:48:39;;;;;;;24.90;19.20;;;7.00;99.70;;;;;;5045113;28;20249;-88
2021/10/28 19:51:06;;;;;;;22.60;18.13;;;6.90;99.80;;;;;;5053330;28;20220;-85
2021/10/28 19:53:33;;;;;;;23.80;18.47;;;6.80;99.90;;;;;;5054268;28;20491;-87
2021/10/28 19:56:09;;;;;;;27.33;17.77;;;6.70;99.90;;;;;;5056638;28;20588;-86
2021/10/28 19:58:39;;;;;;;19.03;16.37;;;6.60;99.90;;;;;;5051742;28;20253;-86
2021/10/28 20:01:11;;;;;;;22.23;17.53;;;6.70;99.90;;;;;;5051370;28;20625;-86
2021/10/28 20:06:41;;;;;;;31.37;16.43;;;6.70;99.50;;;;;;5049754;28;20298;-85
2021/10/28 20:14:51;;;;;;;23.70;16.60;;;6.40;99.70;;;;;;5052667;28;20287;-86
2021/10/28 20:20:08;;;;;;;22.43;16.77;;;6.40;99.90;;;;;;5051469;28;20224;-85
2021/10/28 20:22:37;;;;;;;22.30;15.40;;;6.40;99.90;;;;;;5050789;28;20243;-84
2021/10/28 20:25:05;;;;;;;22.03;15.80;;;6.40;99.90;;;;;;5054451;28;20209;-85
2021/10/28 20:27:32;;;;;;;21.50;15.93;;;6.40;99.90;;;;;;5049664;28;20793;-85
2021/10/28 20:30:00;;;;;;;17.53;14.90;;;6.50;99.70;;;;;;5055857;28;20643;-88
2021/10/28 20:32:27;;;;;;;17.33;14.80;;;6.50;99.50;;;;;;5060417;28;20651;-86
2021/10/28 20:35:06;;;;;;;17.27;14.87;;;6.60;99.00;;;;;;5053490;28;20216;-87
2021/10/28 20:37:36;;;;;;;16.70;14.90;;;6.70;98.50;;;;;;5054439;28;20253;-86
2021/10/28 20:40:04;;;;;;;22.13;15.57;;;6.50;98.60;;;;;;5052145;28;20195;-89
2021/10/28 20:42:38;;;;;;;23.93;15.37;;;6.40;98.80;;;;;;5051983;28;20245;-88
2021/10/28 20:45:08;;;;;;;23.57;15.80;;;6.30;99.10;;;;;;5052822;28;20446;-88
2021/10/28 20:47:36;;;;;;;29.30;16.33;;;6.10;99.30;;;;;;5055846;28;20253;-84
2021/10/28 20:50:06;;;;;;;24.83;16.43;;;6.10;99.40;;;;;;5054722;28;20202;-85
2021/10/28 20:52:35;;;;;;;19.80;15.93;;;6.00;99.50;;;;;;5058394;28;20228;-88
2021/10/28 20:55:02;;;;;;;17.43;13.97;;;6.00;99.70;;;;;;5046076;28;20202;-88